Kezdőlap
METAR-TAF:

METAR-TAF

Repülőterek :

Niamey, Niger

Diori Hamani nemzetközi repülőtér

földrajzi szélesség: 13-29N, földrajzi hosszúság: 002-10E, magasság: 223 m

Jelenlegi meteorológiai megfigyelések

A jelentés 46 perccel ezelõtt készült, 01:00 UTC
Keleti szél 10 kt
Hőmérséklet 22°C
Páratartalom 14%
Légköri nyomás 1014 hPa
Látótávolság: 6000 m

METAR: DRRN 230100Z 08010KT 6000 NSC 22/M07 Q1014 TEMPO 4000 DU

Idő: 02:46 (01:46 UTC)

Előrejelzés

A jelentés 2 órával és 46 perccel ezelõtt készült, 23:00 UTC
Az előrejelzés 23-én 00 óra UTC és 24-én 06 óra UTC között érvényes
Kelet-északkeleti szél 8 kt
Látótávolság: 6000 m
23-én 06 óra UTC és 23-én 08 óra UTC között ideiglenes
Látótávolság: 3500 m
kiterjedt por
23-én 08 óra UTC és 23-én 13 óra UTC között ideiglenes
Keleti szél 20 kt
Látótávolság: 2500 m
porvihar

TAF: DRRN 222300Z 2300/2406 06008KT 6000 NSC TEMPO 2306/2308 3500 DU TEMPO 2308/2313 08020KT 2500 BLDU

Meteorológiai megfigyelések és előrejelzések több, mint 4000 repülőtéren (METAR és TAF jelentéseket).

A térképen piros és sárga pontok jelzik az elérhető meteorológiai állomásokat.

Mozgassa az egeret a pont fölött, hogy megjelenjen az állomás neve.

Azután kattintson az időjárási megfigyelések és előrejelzések megtekintéséhez.

A térkép megváltoztatása: kattintson a fekete keresztel jelölt zöld gombra ráközelítéshez, a vonallal jelölt zöld gombra távolításhoz, vagy a zöld nyilakra a szomszédos térképek eléréséhez.


METAR-TAF: